Time;durP1;ratioP1;P1;durP2;ratioP2;P2;SDS_P1;SDS_P2;PMS_P1;PMS_P2;Temp;Humidity;BMP_temperature;BMP_pressure;BME280_temperature;BME280_humidity;BME280_pressure;Samples;Min_cycle;Max_cycle;Signal;HPM_P1;HPM_P2
2024/04/22 00:00:08;;;;;;;0.10;0.00;;;;;;;5.53;100.00;99314.58;106304;1256;67255;-55
2024/04/22 00:02:35;;;;;;;0.10;0.00;;;;;;;5.51;100.00;99317.48;106284;1255;73454;-56
2024/04/22 00:05:02;;;;;;;0.00;0.00;;;;;;;5.51;100.00;99320.51;106386;1251;62187;-55
2024/04/22 00:07:29;;;;;;;0.00;0.00;;;;;;;5.53;100.00;99318.27;106269;1256;61176;-54
2024/04/22 00:09:56;;;;;;;1.30;0.00;;;;;;;5.55;100.00;99324.62;106683;1252;75159;-54
2024/04/22 00:12:22;;;;;;;0.10;0.00;;;;;;;5.57;100.00;99327.58;106395;1251;66970;-54
2024/04/22 00:14:49;;;;;;;0.00;0.00;;;;;;;5.59;100.00;99330.38;106360;1250;73285;-55
2024/04/22 00:17:16;;;;;;;0.00;0.00;;;;;;;5.59;100.00;99330.02;106348;1255;61234;-56
2024/04/22 00:19:42;;;;;;;0.10;0.00;;;;;;;5.58;100.00;99334.66;106314;1255;61278;-56
2024/04/22 00:22:09;;;;;;;0.00;0.00;;;;;;;5.58;100.00;99344.81;106309;1257;75508;-56
2024/04/22 00:24:36;;;;;;;0.00;0.00;;;;;;;5.58;100.00;99341.78;106302;1254;65940;-57
2024/04/22 00:27:03;;;;;;;0.00;0.00;;;;;;;5.60;100.00;99346.17;106257;1251;72980;-57
2024/04/22 00:29:29;;;;;;;0.10;0.10;;;;;;;5.63;100.00;99348.90;109176;1251;61548;-55
2024/04/22 00:31:56;;;;;;;0.00;0.00;;;;;;;5.67;100.00;99347.18;109222;1251;60093;-54
2024/04/22 00:34:23;;;;;;;0.00;0.00;;;;;;;5.70;100.00;99352.55;107286;1251;74597;-54
2024/04/22 00:36:49;;;;;;;0.30;0.10;;;;;;;5.72;100.00;99356.42;106299;1251;68182;-55
2024/04/22 00:39:16;;;;;;;0.00;0.00;;;;;;;5.71;100.00;99363.39;106332;1256;72531;-56
2024/04/22 00:41:43;;;;;;;1.30;0.00;;;;;;;5.71;100.00;99369.45;107941;1251;62087;-55
2024/04/22 00:44:10;;;;;;;0.10;0.00;;;;;;;5.69;100.00;99373.98;106311;1251;61521;-56
2024/04/22 00:46:37;;;;;;;0.10;0.00;;;;;;;5.68;100.00;99377.59;106322;1256;74432;-56
2024/04/22 00:49:04;;;;;;;0.00;0.00;;;;;;;5.67;100.00;99375.66;106292;1255;68299;-55
2024/04/22 00:51:31;;;;;;;0.00;0.00;;;;;;;5.69;100.00;99386.99;106260;1251;73084;-55
2024/04/22 00:53:58;;;;;;;0.30;0.10;;;;;;;5.70;100.00;99389.42;106294;1257;61357;-55
2024/04/22 00:56:28;;;;;;;0.00;0.00;;;;;;;5.73;100.00;99392.55;106323;1251;62305;-56
2024/04/22 00:58:56;;;;;;;0.00;0.00;;;;;;;5.73;100.00;99395.40;106389;1251;74946;-56
2024/04/22 01:01:23;;;;;;;0.10;0.00;;;;;;;5.73;100.00;99397.54;109360;1251;66734;-57
2024/04/22 01:03:50;;;;;;;0.10;0.00;;;;;;;5.74;100.00;99398.22;109316;1251;73135;-56
2024/04/22 01:06:18;;;;;;;0.00;0.00;;;;;;;5.73;100.00;99401.61;109279;1250;61635;-56
2024/04/22 01:08:45;;;;;;;0.00;0.00;;;;;;;5.74;100.00;99410.48;109359;1252;61763;-53
2024/04/22 01:11:12;;;;;;;2.30;0.00;;;;;;;5.75;100.00;99418.10;109217;1251;73738;-53
2024/04/22 01:13:39;;;;;;;0.00;0.00;;;;;;;5.78;100.00;99423.19;108897;1252;66074;-56
2024/04/22 01:16:06;;;;;;;1.60;0.00;;;;;;;5.79;100.00;99425.06;106362;1255;73124;-54
2024/04/22 01:18:32;;;;;;;0.20;0.00;;;;;;;5.80;100.00;99434.67;106293;1257;62387;-55
2024/04/22 01:20:59;;;;;;;1.00;0.10;;;;;;;5.80;100.00;99440.02;106267;1255;62174;-56
2024/04/22 01:23:25;;;;;;;0.10;0.10;;;;;;;5.80;100.00;99444.47;106394;1251;74728;-57
2024/04/22 01:25:55;;;;;;;0.00;0.00;;;;;;;5.80;100.00;99441.26;106396;1251;66773;-55
2024/04/22 01:28:22;;;;;;;2.10;0.00;;;;;;;5.81;100.00;99451.19;106259;1257;72564;-56
2024/04/22 01:30:49;;;;;;;0.00;0.00;;;;;;;5.83;100.00;99455.41;107410;1250;61244;-55
2024/04/22 01:33:16;;;;;;;0.00;0.00;;;;;;;5.86;100.00;99461.19;107798;1254;61284;-56
2024/04/22 01:35:43;;;;;;;2.10;0.10;;;;;;;5.88;100.00;99466.63;106370;1257;73590;-54
2024/04/22 01:38:09;;;;;;;0.00;0.00;;;;;;;5.91;100.00;99475.27;106335;1256;68293;-56
2024/04/22 01:40:36;;;;;;;0.20;0.00;;;;;;;5.91;100.00;99480.64;106352;1257;72941;-57
2024/04/22 01:43:03;;;;;;;0.00;0.00;;;;;;;5.91;100.00;99484.20;106376;1255;61317;-58
2024/04/22 01:45:30;;;;;;;0.00;0.00;;;;;;;5.91;100.00;99485.44;106761;1255;61263;-56
2024/04/22 01:47:57;;;;;;;1.00;0.00;;;;;;;5.92;100.00;99496.27;107293;1254;74874;-55
2024/04/22 01:50:24;;;;;;;0.00;0.00;;;;;;;5.95;100.00;99497.59;107612;1251;67115;-55
2024/04/22 01:52:51;;;;;;;0.00;0.00;;;;;;;5.98;100.00;99496.77;106351;1258;73881;-55
2024/04/22 01:55:17;;;;;;;0.00;0.00;;;;;;;6.00;100.00;99505.06;106387;1251;61199;-55
2024/04/22 01:57:47;;;;;;;0.00;0.00;;;;;;;6.02;100.00;99506.98;106407;1254;61227;-55
2024/04/22 02:00:14;;;;;;;0.00;0.00;;;;;;;6.03;100.00;99506.06;106446;1254;74529;-52
2024/04/22 02:02:41;;;;;;;0.00;0.00;;;;;;;6.02;100.00;99506.95;108730;1254;66066;-54
2024/04/22 02:05:08;;;;;;;0.00;0.00;;;;;;;6.03;100.00;99511.77;106552;1251;71647;-52
2024/04/22 02:07:34;;;;;;;0.00;0.00;;;;;;;6.02;100.00;99514.98;106251;1258;61226;-52
2024/04/22 02:10:01;;;;;;;0.00;0.00;;;;;;;6.04;100.00;99516.35;106314;1254;61039;-56
2024/04/22 02:12:43;;;;;;;0.00;0.00;;;;;;;6.06;100.00;99522.52;106313;1254;75351;-53
2024/04/22 02:15:10;;;;;;;0.00;0.00;;;;;;;6.07;100.00;99527.64;106316;1257;66967;-52
2024/04/22 02:17:36;;;;;;;0.00;0.00;;;;;;;6.08;100.00;99533.84;106136;1258;72827;-49
2024/04/22 02:20:04;;;;;;;0.20;0.00;;;;;;;6.09;100.00;99536.84;106310;1251;61352;-54
2024/04/22 02:22:31;;;;;;;0.00;0.00;;;;;;;6.07;100.00;99539.04;106410;1254;62220;-53
2024/04/22 02:24:58;;;;;;;0.00;0.00;;;;;;;6.04;100.00;99544.45;107495;1254;74975;-53
2024/04/22 02:27:25;;;;;;;8.40;0.00;;;;;;;6.03;100.00;99553.63;106239;1254;67173;-51
2024/04/22 02:29:51;;;;;;;0.10;0.10;;;;;;;6.03;100.00;99556.27;106344;1255;73415;-54
2024/04/22 02:32:20;;;;;;;0.10;0.00;;;;;;;6.06;100.00;99564.38;106200;1251;61291;-52
2024/04/22 02:34:46;;;;;;;0.10;0.00;;;;;;;6.09;100.00;99569.98;106238;1251;60153;-53
2024/04/22 02:37:13;;;;;;;1.30;0.00;;;;;;;6.12;100.00;99569.71;106309;1251;73910;-51
2024/04/22 02:39:40;;;;;;;0.00;0.00;;;;;;;6.13;100.00;99571.08;106307;1256;66449;-53
2024/04/22 02:42:07;;;;;;;0.00;0.00;;;;;;;6.12;100.00;99574.88;109206;1251;72718;-53
2024/04/22 02:44:33;;;;;;;0.10;0.00;;;;;;;6.11;100.00;99572.23;108436;1254;60841;-53
2024/04/22 02:47:00;;;;;;;0.10;0.00;;;;;;;6.10;100.00;99571.91;106422;1251;61999;-53
2024/04/22 02:49:30;;;;;;;0.20;0.00;;;;;;;6.11;100.00;99578.49;106316;1254;74633;-55
2024/04/22 02:51:57;;;;;;;0.80;0.00;;;;;;;6.13;100.00;99581.09;106379;1251;66958;-53
2024/04/22 02:54:28;;;;;;;1.30;0.00;;;;;;;6.15;100.00;99588.13;106292;1251;72623;-53
2024/04/22 02:56:54;;;;;;;0.10;0.00;;;;;;;6.17;100.00;99588.42;106256;1255;61346;-55
2024/04/22 02:59:21;;;;;;;0.00;0.00;;;;;;;6.18;100.00;99596.93;106502;1257;61359;-53
2024/04/22 03:01:49;;;;;;;0.00;0.00;;;;;;;6.19;100.00;99600.84;106257;1251;75179;-52
2024/04/22 03:04:16;;;;;;;1.00;0.00;;;;;;;6.20;100.00;99605.81;106837;1251;66778;-51
2024/04/22 03:06:43;;;;;;;0.10;0.00;;;;;;;6.18;100.00;99608.36;109202;1251;73623;-53
2024/04/22 03:09:10;;;;;;;0.00;0.00;;;;;;;6.19;100.00;99611.19;106961;1254;62562;-52
2024/04/22 03:11:37;;;;;;;0.10;0.00;;;;;;;6.19;100.00;99614.74;106342;1251;59934;-55
2024/04/22 03:14:04;;;;;;;0.10;0.00;;;;;;;6.20;100.00;99618.63;106306;1257;77806;-53
2024/04/22 03:16:31;;;;;;;0.00;0.00;;;;;;;6.22;100.00;99622.64;106595;1254;65715;-51
2024/04/22 03:18:58;;;;;;;2.30;0.10;;;;;;;6.24;100.00;99623.48;107512;1255;73033;-52
2024/04/22 03:21:24;;;;;;;0.00;0.00;;;;;;;6.25;100.00;99628.96;106323;1251;62559;-52
2024/04/22 03:23:51;;;;;;;0.00;0.00;;;;;;;6.27;100.00;99632.65;106422;1256;61941;-51
2024/04/22 03:26:18;;;;;;;0.10;0.10;;;;;;;6.28;100.00;99640.64;106311;1256;75492;-54
2024/04/22 03:31:19;;;;;;;0.20;0.00;;;;;;;6.30;100.00;99654.98;102869;1293;600959;-52
2024/04/22 03:33:45;;;;;;;0.10;0.00;;;;;;;6.27;100.00;99666.67;106670;1269;60076;-53
2024/04/22 03:36:12;;;;;;;0.20;0.00;;;;;;;6.28;100.00;99673.61;105271;1282;60253;-55
2024/04/22 03:38:39;;;;;;;0.00;0.00;;;;;;;6.31;100.00;99672.25;105290;1270;73624;-52
2024/04/22 03:41:06;;;;;;;0.00;0.00;;;;;;;6.34;100.00;99675.35;105414;1263;66800;-51
2024/04/22 03:43:33;;;;;;;0.60;0.10;;;;;;;6.37;100.00;99676.88;105348;1264;73085;-54
2024/04/22 03:51:30;;;;;;;0.00;0.00;;;;;;;6.35;100.00;99683.70;108658;1263;72958;-56
2024/04/22 03:53:57;;;;;;;0.00;0.00;;;;;;;6.35;100.00;99682.64;108524;1263;67372;-51
2024/04/22 03:56:24;;;;;;;0.00;0.00;;;;;;;6.34;100.00;99683.36;108644;1262;71833;-50
2024/04/22 03:58:50;;;;;;;0.00;0.00;;;;;;;6.35;100.00;99686.38;108700;1259;60144;-50
2024/04/22 04:01:17;;;;;;;0.00;0.00;;;;;;;6.38;100.00;99692.17;108830;1260;58738;-49
2024/04/22 04:03:44;;;;;;;0.40;0.00;;;;;;;6.39;100.00;99690.52;108711;1259;73029;-54
2024/04/22 04:06:11;;;;;;;0.90;0.10;;;;;;;6.40;100.00;99697.08;108745;1259;65733;-52
2024/04/22 04:08:38;;;;;;;0.00;0.00;;;;;;;6.39;100.00;99709.92;108625;1261;72583;-50
2024/04/22 04:11:11;;;;;;;0.20;0.00;;;;;;;6.39;100.00;99715.11;108644;1260;59588;-48
2024/04/22 04:13:39;;;;;;;0.10;0.00;;;;;;;6.39;100.00;99720.28;108693;1260;59605;-51
2024/04/22 04:16:09;;;;;;;0.00;0.00;;;;;;;6.39;100.00;99718.67;108633;1260;74002;-50
2024/04/22 04:18:37;;;;;;;0.00;0.00;;;;;;;6.40;100.00;99717.56;108611;1260;67520;-51
2024/04/22 04:21:04;;;;;;;0.00;0.00;;;;;;;6.46;100.00;99724.71;108567;1260;72930;-49
2024/04/22 04:23:32;;;;;;;0.00;0.00;;;;;;;6.51;100.00;99732.38;108045;1260;61329;-51
2024/04/22 04:25:59;;;;;;;0.00;0.00;;;;;;;6.56;100.00;99735.61;105877;1260;60483;-52
2024/04/22 04:28:26;;;;;;;0.00;0.00;;;;;;;6.60;100.00;99734.23;105871;1264;73774;-53
2024/04/22 04:30:56;;;;;;;8.00;0.10;;;;;;;6.63;100.00;99741.98;105722;1265;66980;-54
2024/04/22 04:33:24;;;;;;;0.10;0.10;;;;;;;6.63;100.00;99745.53;108080;1264;72136;-52
2024/04/22 04:36:03;;;;;;;0.10;0.00;;;;;;;6.65;100.00;99754.39;106765;1260;60347;-53
2024/04/22 04:38:31;;;;;;;1.40;0.10;;;;;;;6.68;100.00;99760.16;106576;1260;60550;-53
2024/04/22 04:40:58;;;;;;;0.10;0.00;;;;;;;6.71;100.00;99758.64;106292;1260;74898;-52
2024/04/22 04:43:25;;;;;;;0.60;0.00;;;;;;;6.75;100.00;99764.03;105625;1265;66407;-53
2024/04/22 04:45:52;;;;;;;0.00;0.00;;;;;;;6.78;100.00;99762.89;105849;1264;71124;-53
2024/04/22 04:48:20;;;;;;;0.00;0.00;;;;;;;6.81;100.00;99761.34;108528;1260;59912;-52
2024/04/22 04:50:47;;;;;;;0.00;0.00;;;;;;;6.83;100.00;99765.92;108578;1260;58887;-51
2024/04/22 04:53:14;;;;;;;0.00;0.00;;;;;;;6.84;100.00;99769.65;107366;1261;73744;-51
2024/04/22 04:55:41;;;;;;;0.30;0.00;;;;;;;6.84;100.00;99776.59;105833;1264;66705;-52
2024/04/22 04:58:09;;;;;;;1.50;0.00;;;;;;;6.84;100.00;99778.55;105860;1261;72834;-52
2024/04/22 05:00:35;;;;;;;0.10;0.00;;;;;;;6.84;100.00;99782.65;105680;1260;60406;-54
2024/04/22 05:03:02;;;;;;;0.00;0.00;;;;;;;6.85;100.00;99782.09;105653;1261;60540;-51
2024/04/22 05:05:29;;;;;;;0.20;0.10;;;;;;;6.87;100.00;99787.56;105925;1261;73437;-51
2024/04/22 05:07:56;;;;;;;0.10;0.10;;;;;;;6.91;100.00;99791.16;105817;1260;67153;-50
2024/04/22 05:10:23;;;;;;;0.10;0.10;;;;;;;6.96;100.00;99799.22;105599;1260;72410;-53
2024/04/22 05:12:50;;;;;;;0.10;0.10;;;;;;;7.00;100.00;99804.06;105502;1267;60454;-52
2024/04/22 05:15:21;;;;;;;0.70;0.10;;;;;;;7.01;100.00;99805.45;105684;1264;60082;-52
2024/04/22 05:17:48;;;;;;;0.20;0.10;;;;;;;7.02;100.00;99808.84;106317;1260;72969;-51
2024/04/22 05:20:15;;;;;;;0.50;0.10;;;;;;;7.03;100.00;99814.66;105456;1276;65626;-49
2024/04/22 05:22:42;;;;;;;0.10;0.10;;;;;;;7.06;100.00;99822.96;105519;1263;72952;-53
2024/04/22 05:25:09;;;;;;;1.70;0.10;;;;;;;7.09;100.00;99823.39;105641;1264;61363;-52
2024/04/22 05:27:36;;;;;;;0.20;0.10;;;;;;;7.13;100.00;99835.95;106449;1265;60440;-52
2024/04/22 05:30:03;;;;;;;0.30;0.10;;;;;;;7.17;100.00;99834.56;105392;1278;74817;-51
2024/04/22 05:32:32;;;;;;;0.10;0.10;;;;;;;7.21;100.00;99839.80;106823;1262;68280;-51
2024/04/22 05:37:44;;;;;;;0.30;0.10;;;;;;;7.26;100.00;99851.73;105371;1264;60425;-52
2024/04/22 05:40:11;;;;;;;0.20;0.20;;;;;;;7.27;100.00;99855.28;105439;1263;60555;-53
2024/04/22 05:42:38;;;;;;;0.10;0.10;;;;;;;7.28;100.00;99868.64;105504;1263;74042;-50
2024/04/22 05:45:05;;;;;;;0.40;0.20;;;;;;;7.30;100.00;99877.67;105739;1262;67055;-52
2024/04/22 05:47:34;;;;;;;0.30;0.10;;;;;;;7.36;100.00;99891.77;106463;1262;73119;-52
2024/04/22 05:50:02;;;;;;;0.20;0.20;;;;;;;7.41;100.00;99895.16;105434;1262;60568;-52
2024/04/22 05:52:29;;;;;;;0.10;0.10;;;;;;;7.45;100.00;99903.80;106561;1266;60579;-55
2024/04/22 05:54:56;;;;;;;0.80;0.10;;;;;;;7.48;100.00;99910.09;105376;1267;74447;-51
2024/04/22 05:57:22;;;;;;;0.10;0.10;;;;;;;7.49;100.00;99911.86;105424;1264;66703;-50
2024/04/22 05:59:49;;;;;;;0.20;0.10;;;;;;;7.49;100.00;99917.02;105597;1262;72590;-50
2024/04/22 06:02:16;;;;;;;0.20;0.20;;;;;;;7.49;100.00;99918.80;105438;1262;61490;-50
2024/04/22 06:04:43;;;;;;;2.60;0.10;;;;;;;7.49;100.00;99926.67;106040;1266;60548;-52
2024/04/22 06:07:10;;;;;;;0.20;0.10;;;;;;;7.51;100.00;99935.52;105460;1268;71557;-53
2024/04/22 06:09:37;;;;;;;0.10;0.10;;;;;;;7.53;100.00;99943.49;105550;1267;67152;-51
2024/04/22 06:12:04;;;;;;;0.10;0.10;;;;;;;7.57;100.00;99947.83;105402;1263;72332;-53
2024/04/22 06:14:44;;;;;;;0.30;0.10;;;;;;;7.64;100.00;99953.16;105436;1265;61398;-53
2024/04/22 06:17:11;;;;;;;0.20;0.20;;;;;;;7.70;100.00;99958.48;105525;1268;60502;-50
2024/04/22 06:19:38;;;;;;;0.40;0.20;;;;;;;7.77;100.00;99969.33;108663;1262;72973;-55
2024/04/22 06:22:05;;;;;;;0.20;0.20;;;;;;;7.82;100.00;99982.91;106390;1267;66941;-50
2024/04/22 06:24:32;;;;;;;1.00;0.10;;;;;;;7.86;100.00;99992.23;107949;1262;72655;-51
2024/04/22 06:26:58;;;;;;;0.20;0.20;;;;;;;7.87;100.00;100000.43;105428;1278;60044;-53
2024/04/22 06:29:25;;;;;;;1.10;0.10;;;;;;;7.88;100.00;100010.21;106559;1260;60568;-51
2024/04/22 06:31:52;;;;;;;1.80;0.10;;;;;;;7.87;100.00;100020.08;105658;1261;73896;-51
2024/04/22 06:34:19;;;;;;;0.10;0.10;;;;;;;7.87;100.00;100029.37;105669;1264;67052;-52
2024/04/22 06:36:46;;;;;;;0.30;0.10;;;;;;;7.86;100.00;100039.42;108686;1259;72792;-52
2024/04/22 06:39:13;;;;;;;0.60;0.20;;;;;;;7.84;100.00;100041.07;108574;1261;59728;-50
2024/04/22 06:41:39;;;;;;;0.50;0.30;;;;;;;7.82;100.00;100045.60;108617;1259;59318;-53
2024/04/22 06:44:06;;;;;;;0.80;0.50;;;;;;;7.84;100.00;100052.52;108696;1260;73747;-53
2024/04/22 06:46:33;;;;;;;0.50;0.40;;;;;;;7.85;100.00;100068.74;108624;1259;67213;-55
2024/04/22 06:49:00;;;;;;;0.70;0.40;;;;;;;7.86;100.00;100074.41;108664;1260;72968;-50
2024/04/22 06:51:26;;;;;;;0.80;0.40;;;;;;;7.87;100.00;100075.11;108605;1259;59107;-50
2024/04/22 06:53:53;;;;;;;0.30;0.30;;;;;;;7.87;100.00;100073.67;107959;1260;58966;-51
2024/04/22 06:56:20;;;;;;;0.40;0.30;;;;;;;7.87;100.00;100075.48;108714;1259;73769;-52
2024/04/22 06:58:47;;;;;;;1.50;0.20;;;;;;;7.86;100.00;100082.83;108577;1259;67561;-52
2024/04/22 07:01:13;;;;;;;0.20;0.10;;;;;;;7.85;100.00;100088.21;108662;1259;71395;-54
2024/04/22 07:03:57;;;;;;;0.20;0.20;;;;;;;7.87;100.00;100096.38;108633;1259;59868;-53
2024/04/22 07:06:24;;;;;;;1.20;0.20;;;;;;;7.90;100.00;100103.80;108799;1259;59848;-54
2024/04/22 07:08:51;;;;;;;0.20;0.20;;;;;;;7.95;100.00;100110.96;108632;1259;73752;-55
2024/04/22 07:11:17;;;;;;;0.20;0.20;;;;;;;7.99;100.00;100121.71;108651;1259;66993;-53
2024/04/22 07:13:44;;;;;;;1.30;0.20;;;;;;;8.04;100.00;100123.88;108796;1259;71014;-52
2024/04/22 07:16:13;;;;;;;0.20;0.20;;;;;;;8.09;100.00;100128.17;108592;1260;59756;-52
2024/04/22 07:18:40;;;;;;;0.20;0.20;;;;;;;8.13;100.00;100128.44;108621;1259;59352;-51
2024/04/22 07:21:07;;;;;;;0.60;0.20;;;;;;;8.14;100.00;100132.32;108720;1260;72365;-52
2024/04/22 07:23:33;;;;;;;1.40;0.20;;;;;;;8.16;100.00;100143.52;108656;1259;68223;-53
2024/04/22 07:26:04;;;;;;;0.50;0.20;;;;;;;8.19;100.00;100149.49;108699;1259;72524;-49
2024/04/22 07:28:31;;;;;;;0.50;0.30;;;;;;;8.20;100.00;100161.78;105686;1264;60678;-52
2024/04/22 07:30:58;;;;;;;1.80;0.30;;;;;;;8.22;100.00;100174.07;108580;1264;59283;-50
2024/04/22 07:33:25;;;;;;;0.30;0.20;;;;;;;8.24;100.00;100175.27;108751;1259;72584;-51
2024/04/22 07:36:17;;;;;;;0.30;0.10;;;;;;;8.26;100.00;100184.30;106941;1264;66429;-54
2024/04/22 07:38:44;;;;;;;0.10;0.10;;;;;;;8.29;100.00;100194.40;106651;1260;72587;-52
2024/04/22 07:41:11;;;;;;;2.40;0.10;;;;;;;8.32;100.00;100198.30;108460;1260;59060;-51
2024/04/22 07:43:38;;;;;;;1.00;0.20;;;;;;;8.35;100.00;100199.44;106767;1263;59764;-53
2024/04/22 07:46:04;;;;;;;0.10;0.10;;;;;;;8.40;100.00;100199.46;106283;1263;75483;-56
2024/04/22 07:48:31;;;;;;;1.60;0.20;;;;;;;8.44;100.00;100206.48;105545;1263;66495;-53
2024/04/22 07:51:02;;;;;;;0.10;0.10;;;;;;;8.45;100.00;100209.84;105646;1259;72720;-52
2024/04/22 07:53:29;;;;;;;0.40;0.10;;;;;;;8.44;100.00;100211.83;107223;1262;61465;-54
2024/04/22 07:55:56;;;;;;;0.50;0.20;;;;;;;8.43;100.00;100214.73;106159;1259;62360;-53
2024/04/22 07:58:23;;;;;;;0.30;0.10;;;;;;;8.43;100.00;100220.46;105620;1264;74655;-52
2024/04/22 08:00:51;;;;;;;0.10;0.10;;;;;;;8.41;100.00;100218.04;105656;1263;67034;-51
2024/04/22 08:03:18;;;;;;;0.90;0.20;;;;;;;8.41;100.00;100221.06;105934;1264;71125;-51
2024/04/22 08:05:46;;;;;;;0.50;0.20;;;;;;;8.45;100.00;100226.48;108428;1260;61008;-52
2024/04/22 08:08:12;;;;;;;0.40;0.30;;;;;;;8.51;100.00;100232.36;106038;1264;61366;-53
2024/04/22 08:10:39;;;;;;;0.30;0.20;;;;;;;8.56;100.00;100237.21;105488;1260;73445;-52
2024/04/22 08:13:06;;;;;;;0.20;0.20;;;;;;;8.60;100.00;100243.86;105652;1259;66804;-52
2024/04/22 08:15:34;;;;;;;1.20;0.30;;;;;;;8.65;100.00;100245.88;105667;1260;72288;-53
2024/04/22 08:18:01;;;;;;;0.30;0.20;;;;;;;8.69;100.00;100248.95;107875;1261;60849;-53
2024/04/22 08:20:28;;;;;;;0.30;0.10;;;;;;;8.74;100.00;100252.71;105377;1261;63644;-53
2024/04/22 08:22:59;;;;;;;3.20;0.50;;;;;;;8.78;100.00;100254.71;105553;1265;74690;-53
2024/04/22 08:25:25;;;;;;;0.30;0.20;;;;;;;8.81;100.00;100260.02;105926;1264;67558;-51
2024/04/22 08:27:53;;;;;;;1.30;0.10;;;;;;;8.83;100.00;100267.83;105626;1280;72394;-50
2024/04/22 08:30:20;;;;;;;1.70;0.20;;;;;;;8.83;100.00;100266.73;105579;1280;61288;-51
2024/04/22 08:32:46;;;;;;;1.20;0.10;;;;;;;8.83;100.00;100270.33;105651;1260;62160;-55
2024/04/22 08:35:14;;;;;;;1.00;0.20;;;;;;;8.84;100.00;100275.47;105853;1257;74667;-52
2024/04/22 08:37:41;;;;;;;0.30;0.20;;;;;;;8.89;100.00;100276.91;105937;1256;67922;-54
2024/04/22 08:40:09;;;;;;;0.40;0.20;;;;;;;8.95;100.00;100284.05;105883;1260;71447;-54
2024/04/22 08:42:38;;;;;;;0.30;0.20;;;;;;;9.01;100.00;100285.98;106579;1256;61254;-51
2024/04/22 08:45:06;;;;;;;5.80;0.20;;;;;;;9.08;100.00;100291.67;108529;1257;59186;-52
2024/04/22 08:47:34;;;;;;;0.20;0.20;;;;;;;9.15;100.00;100293.93;106127;1258;74651;-53
2024/04/22 08:50:01;;;;;;;1.70;0.20;;;;;;;9.22;100.00;100301.94;105852;1260;66859;-54
2024/04/22 08:52:28;;;;;;;0.20;0.20;;;;;;;9.25;100.00;100302.02;107013;1260;73189;-52
2024/04/22 08:55:09;;;;;;;0.30;0.20;;;;;;;9.27;100.00;100309.14;105797;1263;61199;-53
2024/04/22 08:57:36;;;;;;;1.80;0.20;;;;;;;9.27;100.00;100306.79;106066;1260;61340;-52
2024/04/22 09:00:03;;;;;;;0.20;0.20;;;;;;;9.27;100.00;100308.95;105782;1261;75177;-52
2024/04/22 09:02:30;;;;;;;0.20;0.20;;;;;;;9.28;100.00;100319.11;108476;1259;67869;-55
2024/04/22 09:04:57;;;;;;;0.70;0.20;;;;;;;9.27;100.00;100317.52;105846;1257;72605;-53
2024/04/22 09:07:24;;;;;;;0.20;0.20;;;;;;;9.28;100.00;100327.52;105749;1262;60414;-54
2024/04/22 09:09:51;;;;;;;0.20;0.10;;;;;;;9.28;100.00;100331.11;105912;1257;61123;-52
2024/04/22 09:12:38;;;;;;;1.20;0.20;;;;;;;9.28;100.00;100338.27;105836;1272;74854;-50
2024/04/22 09:15:06;;;;;;;2.60;0.30;;;;;;;9.33;100.00;100337.40;105902;1256;67071;-52
2024/04/22 09:17:35;;;;;;;0.70;0.20;;;;;;;9.39;100.00;100340.02;106447;1262;70243;-52
2024/04/22 09:20:04;;;;;;;0.40;0.30;;;;;;;9.46;100.00;100338.73;106023;1272;61246;-50
2024/04/22 09:22:31;;;;;;;0.20;0.20;;;;;;;9.50;100.00;100344.33;108283;1260;59370;-52
2024/04/22 09:24:58;;;;;;;0.30;0.20;;;;;;;9.56;100.00;100343.41;106573;1261;75223;-52
2024/04/22 09:27:27;;;;;;;1.70;0.20;;;;;;;9.60;100.00;100352.05;105860;1258;67098;-51
2024/04/22 09:29:56;;;;;;;2.10;0.30;;;;;;;9.60;100.00;100353.30;105664;1262;72267;-50
2024/04/22 09:32:23;;;;;;;0.40;0.20;;;;;;;9.57;100.00;100352.15;105866;1272;61305;-51
2024/04/22 09:34:50;;;;;;;2.30;0.30;;;;;;;9.57;100.00;100358.05;105958;1260;61043;-52
2024/04/22 09:37:17;;;;;;;0.30;0.20;;;;;;;9.64;100.00;100358.16;109028;1253;75793;-49
2024/04/22 09:39:44;;;;;;;0.70;0.30;;;;;;;9.72;100.00;100351.63;109036;1253;66697;-51
2024/04/22 09:42:11;;;;;;;0.30;0.30;;;;;;;9.80;100.00;100349.70;109116;1253;71638;-53
2024/04/22 09:44:37;;;;;;;0.30;0.20;;;;;;;9.88;100.00;100352.83;109152;1252;59377;-52
2024/04/22 09:47:04;;;;;;;0.30;0.20;;;;;;;9.97;100.00;100357.16;109093;1253;58950;-52
2024/04/22 09:49:32;;;;;;;0.30;0.20;;;;;;;10.08;100.00;100363.92;109003;1252;73442;-53
2024/04/22 09:51:59;;;;;;;0.20;0.20;;;;;;;10.20;100.00;100373.20;109176;1252;66279;-51
2024/04/22 09:54:26;;;;;;;0.20;0.10;;;;;;;10.30;100.00;100384.66;108972;1258;72570;-53
2024/04/22 09:56:53;;;;;;;0.20;0.10;;;;;;;10.35;100.00;100388.42;109232;1253;59305;-52
2024/04/22 09:59:20;;;;;;;0.30;0.10;;;;;;;10.42;100.00;100392.50;109143;1253;59238;-51
2024/04/22 10:01:47;;;;;;;0.70;0.10;;;;;;;10.47;100.00;100392.98;109191;1252;73367;-53
2024/04/22 10:04:14;;;;;;;0.40;0.10;;;;;;;10.53;100.00;100395.11;109048;1253;66192;-53
2024/04/22 10:06:41;;;;;;;0.20;0.10;;;;;;;10.59;100.00;100397.75;109145;1253;71383;-51
2024/04/22 10:09:15;;;;;;;0.20;0.10;;;;;;;10.65;100.00;100397.17;109095;1252;60206;-52
2024/04/22 10:11:42;;;;;;;0.20;0.10;;;;;;;10.69;100.00;100413.55;109200;1253;61394;-55
2024/04/22 10:14:14;;;;;;;2.70;0.20;;;;;;;10.73;100.00;100413.19;106624;1256;74746;-51
2024/04/22 10:16:52;;;;;;;0.70;0.20;;;;;;;10.76;100.00;100418.79;109085;1253;67993;-53
2024/04/22 10:19:19;;;;;;;0.30;0.20;;;;;;;10.83;100.00;100424.83;109225;1252;73723;-55
2024/04/22 10:21:49;;;;;;;0.10;0.10;;;;;;;10.87;100.00;100427.53;106856;1253;61277;-53
2024/04/22 10:24:38;;;;;;;0.60;0.20;;;;;;;10.95;100.00;100429.04;106863;1256;61248;-51
2024/04/22 10:27:06;;;;;;;2.50;0.30;;;;;;;11.02;100.00;100435.39;106223;1256;73184;-56
2024/04/22 10:29:40;;;;;;;0.30;0.30;;;;;;;11.06;100.00;100440.29;106212;1256;67720;-52
2024/04/22 10:32:07;;;;;;;1.00;0.20;;;;;;;11.03;100.00;100455.14;106311;1259;73475;-52
2024/04/22 10:34:38;;;;;;;0.30;0.20;;;;;;;11.01;100.00;100457.52;106235;1254;61275;-51
2024/04/22 10:37:05;;;;;;;0.30;0.20;;;;;;;10.99;100.00;100459.01;106324;1257;61006;-53
2024/04/22 10:39:32;;;;;;;2.40;0.20;;;;;;;11.02;100.00;100456.95;106727;1256;74481;-52
2024/04/22 10:42:00;;;;;;;0.50;0.20;;;;;;;11.07;100.00;100462.15;106722;1255;66955;-53
2024/04/22 10:44:27;;;;;;;2.70;0.20;;;;;;;11.08;100.00;100464.95;108468;1256;73095;-52
2024/04/22 10:46:54;;;;;;;0.30;0.20;;;;;;;11.03;100.00;100465.70;106689;1253;61223;-52
2024/04/22 10:49:21;;;;;;;0.60;0.20;;;;;;;11.00;100.00;100469.94;106192;1256;60910;-55
2024/04/22 10:51:49;;;;;;;1.20;0.40;;;;;;;10.98;100.00;100465.52;106273;1256;75134;-51
2024/04/22 10:54:16;;;;;;;0.40;0.10;;;;;;;10.96;100.00;100469.55;107789;1253;67066;-52
2024/04/22 10:56:42;;;;;;;0.10;0.10;;;;;;;11.00;100.00;100473.72;106291;1256;73251;-53
2024/04/22 10:59:11;;;;;;;1.30;0.20;;;;;;;11.07;100.00;100473.27;106196;1252;61435;-52
2024/04/22 11:01:38;;;;;;;2.70;0.10;;;;;;;11.17;100.00;100479.70;106249;1258;61353;-52
2024/04/22 11:04:05;;;;;;;0.30;0.20;;;;;;;11.23;100.00;100485.55;106645;1256;74631;-55
2024/04/22 11:06:31;;;;;;;0.60;0.20;;;;;;;11.29;100.00;100492.88;106221;1256;67354;-54
2024/04/22 11:08:58;;;;;;;0.10;0.10;;;;;;;11.35;100.00;100495.88;106089;1261;73318;-51
2024/04/22 11:11:25;;;;;;;0.10;0.10;;;;;;;11.42;100.00;100493.79;106241;1253;61238;-54
2024/04/22 11:13:52;;;;;;;2.80;0.20;;;;;;;11.48;100.00;100502.56;105973;1269;61292;-51
2024/04/22 11:16:20;;;;;;;0.40;0.10;;;;;;;11.48;100.00;100502.21;109244;1252;75255;-54
2024/04/22 11:18:47;;;;;;;0.20;0.10;;;;;;;11.47;100.00;100502.61;107692;1253;66326;-56
2024/04/22 11:21:14;;;;;;;0.10;0.10;;;;;;;11.49;100.00;100502.15;106897;1254;73382;-55
2024/04/22 11:23:41;;;;;;;0.10;0.10;;;;;;;11.49;100.00;100506.09;105864;1261;61300;-53
2024/04/22 11:26:09;;;;;;;2.20;0.10;;;;;;;11.43;100.00;100503.13;106190;1258;61359;-56
2024/04/22 11:28:36;;;;;;;0.10;0.10;;;;;;;11.41;100.00;100504.08;107241;1258;75407;-56
2024/04/22 11:31:03;;;;;;;0.20;0.10;;;;;;;11.44;100.00;100506.10;105956;1259;67259;-50